createdAt,value
2023-05-21T00:01:34.715Z,19.15
2023-05-21T00:04:06.210Z,20.70
2023-05-21T00:06:37.545Z,20.70
2023-05-21T00:09:08.044Z,17.30
2023-05-21T00:11:37.566Z,18.90
2023-05-21T00:14:07.259Z,20.40
2023-05-21T00:16:36.834Z,19.25
2023-05-21T00:19:06.491Z,19.27
2023-05-21T00:21:37.340Z,19.15
2023-05-21T00:24:08.186Z,19.35
2023-05-21T00:26:37.706Z,18.38
2023-05-21T00:29:07.616Z,20.70
2023-05-21T00:31:37.263Z,19.73
2023-05-21T00:34:06.831Z,18.23
2023-05-21T00:36:38.096Z,19.20
2023-05-21T00:39:08.839Z,19.45
2023-05-21T00:41:40.134Z,17.92
2023-05-21T00:44:10.192Z,17.42
2023-05-21T00:46:41.228Z,16.33
2023-05-21T00:49:11.197Z,17.23
2023-05-21T00:51:42.341Z,19.73
2023-05-21T00:54:12.010Z,18.20
2023-05-21T00:56:41.709Z,19.02
2023-05-21T00:59:11.623Z,18.45
2023-05-21T01:01:41.252Z,18.17
2023-05-21T01:04:11.059Z,21.02
2023-05-21T01:06:42.590Z,19.90
2023-05-21T01:09:12.416Z,18.23
2023-05-21T01:11:46.214Z,20.10
2023-05-21T01:14:18.009Z,20.90
2023-05-21T01:16:52.189Z,19.20
2023-05-21T01:19:24.054Z,18.83
2023-05-21T01:22:07.020Z,19.77
2023-05-21T01:24:39.127Z,18.92
2023-05-21T01:27:10.426Z,22.00
2023-05-21T01:29:40.003Z,32.67
2023-05-21T01:32:19.273Z,18.92
2023-05-21T01:35:01.863Z,19.08
2023-05-21T01:37:39.232Z,20.25
2023-05-21T01:40:19.471Z,20.35
2023-05-21T01:42:49.519Z,20.50
2023-05-21T01:45:19.749Z,18.55
2023-05-21T01:47:53.203Z,23.17
2023-05-21T01:50:25.731Z,18.33
2023-05-21T01:52:58.574Z,21.05
2023-05-21T01:55:31.334Z,18.08
2023-05-21T02:00:32.712Z,21.55
2023-05-21T02:03:02.855Z,19.83
2023-05-21T02:05:32.588Z,18.55
2023-05-21T02:08:03.352Z,17.80
2023-05-21T02:10:34.223Z,20.02
2023-05-21T02:13:04.421Z,19.17
2023-05-21T02:15:35.445Z,17.45
2023-05-21T02:18:05.485Z,19.73
2023-05-21T02:20:35.977Z,18.83
2023-05-21T02:23:05.590Z,18.92
2023-05-21T02:25:37.012Z,20.73
2023-05-21T02:28:07.343Z,18.73
2023-05-21T02:30:36.836Z,18.33
2023-05-21T02:33:09.318Z,19.77
2023-05-21T02:35:38.993Z,17.98
2023-05-21T02:38:09.170Z,16.30
2023-05-21T02:40:40.094Z,15.45
2023-05-21T02:43:09.744Z,18.15
2023-05-21T02:45:39.510Z,17.38
2023-05-21T02:48:09.280Z,18.55
2023-05-21T02:50:43.018Z,15.60
2023-05-21T02:53:12.572Z,18.30
2023-05-21T02:55:43.604Z,17.88
2023-05-21T02:58:14.968Z,15.93
2023-05-21T03:00:44.720Z,18.42
2023-05-21T03:03:15.259Z,17.30
2023-05-21T03:05:45.787Z,18.00
2023-05-21T03:08:15.483Z,17.33
2023-05-21T03:10:46.468Z,18.95
2023-05-21T03:13:16.395Z,20.40
2023-05-21T03:15:46.561Z,16.90
2023-05-21T03:18:16.488Z,20.10
2023-05-21T03:20:45.961Z,18.52
2023-05-21T03:23:16.884Z,18.63
2023-05-21T03:25:48.571Z,17.52
2023-05-21T03:28:19.568Z,15.88
2023-05-21T03:30:53.354Z,19.17
2023-05-21T03:33:31.879Z,14.75
2023-05-21T03:36:02.664Z,20.92
2023-05-21T18:08:17.743Z,8.00
2023-05-21T18:10:48.025Z,8.48
2023-05-21T18:13:17.752Z,9.35
2023-05-21T18:15:47.990Z,8.93
2023-05-21T18:18:21.349Z,8.13
2023-05-21T18:20:51.770Z,7.88
2023-05-21T18:23:22.781Z,8.82
2023-05-21T18:25:52.508Z,8.52
2023-05-21T18:28:22.189Z,9.57
2023-05-21T18:30:51.789Z,9.43
2023-05-21T18:33:21.342Z,8.32
2023-05-21T18:35:50.831Z,8.73
2023-05-21T18:38:20.409Z,8.88
2023-05-21T18:40:52.123Z,9.48
2023-05-21T18:43:21.679Z,9.53
2023-05-21T18:45:51.228Z,10.10
2023-05-21T18:48:20.828Z,10.57
2023-05-21T18:50:50.698Z,11.05
2023-05-21T18:53:20.485Z,8.15
2023-05-21T18:55:51.574Z,11.57
2023-05-21T18:58:21.350Z,10.50
2023-05-21T19:00:51.184Z,10.57
2023-05-21T19:03:20.720Z,10.07
2023-05-21T19:05:50.408Z,10.15
2023-05-21T19:08:21.163Z,8.90
2023-05-21T19:10:52.980Z,10.35
2023-05-21T19:13:22.762Z,10.27
2023-05-21T19:15:53.455Z,8.98
2023-05-21T19:18:30.215Z,10.05
2023-05-21T19:21:00.902Z,11.10
2023-05-21T19:23:38.370Z,13.10
2023-05-21T19:26:19.638Z,11.07
2023-05-21T19:28:53.178Z,10.53
2023-05-21T19:31:25.331Z,10.88
2023-05-21T19:33:55.125Z,10.67
2023-05-21T19:36:26.872Z,10.88
2023-05-21T19:38:58.906Z,10.25
2023-05-21T19:41:29.889Z,12.70
2023-05-21T19:43:59.467Z,10.57
2023-05-21T19:46:29.303Z,11.07
2023-05-21T19:48:59.344Z,11.93
2023-05-21T19:51:28.984Z,12.50
2023-05-21T19:54:00.114Z,11.45
2023-05-21T19:56:31.664Z,12.57
2023-05-21T19:59:01.225Z,12.65
2023-05-21T20:01:33.161Z,11.95
2023-05-21T20:04:02.864Z,11.50
2023-05-21T20:06:32.617Z,12.85
2023-05-21T20:09:02.428Z,11.75
2023-05-21T20:11:33.604Z,12.00
2023-05-21T20:14:03.235Z,12.88
2023-05-21T20:16:33.442Z,13.35
2023-05-21T20:19:03.874Z,12.50
2023-05-21T20:21:33.701Z,15.35
2023-05-21T20:24:03.676Z,13.32
2023-05-21T20:26:40.095Z,13.30
2023-05-21T20:29:09.716Z,12.52
2023-05-21T20:31:53.162Z,13.57
2023-05-21T20:34:22.828Z,14.35
2023-05-21T20:36:58.257Z,13.60
2023-05-21T20:39:29.630Z,12.07
2023-05-21T20:42:00.973Z,12.23
2023-05-21T20:44:30.554Z,14.27
2023-05-21T20:47:01.669Z,14.82
2023-05-21T20:49:33.142Z,13.30
2023-05-21T20:52:02.774Z,13.15
2023-05-21T20:54:32.286Z,12.93
2023-05-21T20:57:04.258Z,13.52
2023-05-21T20:59:34.409Z,14.70
2023-05-21T21:02:04.020Z,14.60
2023-05-21T21:04:33.565Z,13.20
2023-05-21T21:07:03.092Z,16.00
2023-05-21T21:09:32.742Z,14.38
2023-05-21T21:12:24.001Z,18.13
2023-05-21T21:14:55.343Z,15.40
2023-05-21T21:17:25.195Z,17.05
2023-05-21T21:19:54.811Z,14.73
2023-05-21T21:22:24.395Z,16.55
2023-05-21T21:24:53.886Z,18.52
2023-05-21T21:27:24.964Z,14.63
2023-05-21T21:29:54.646Z,14.13
2023-05-21T21:32:24.372Z,16.08
2023-05-21T21:34:54.163Z,15.73
2023-05-21T21:37:23.785Z,18.38
2023-05-21T21:39:54.519Z,16.55
2023-05-21T21:42:25.475Z,17.58
2023-05-21T21:44:54.988Z,15.98
2023-05-21T21:47:24.575Z,16.17
2023-05-21T21:49:54.121Z,17.27
2023-05-21T21:52:27.374Z,16.27
2023-05-21T21:54:59.674Z,16.30
2023-05-21T22:00:01.013Z,16.40
2023-05-21T22:02:30.825Z,15.95
2023-05-21T22:05:00.546Z,15.00
2023-05-21T22:07:32.114Z,14.55
2023-05-21T22:10:02.583Z,20.60
2023-05-21T22:12:33.887Z,15.18
2023-05-21T22:15:05.244Z,16.77
2023-05-21T22:17:35.918Z,16.75
2023-05-21T22:20:07.309Z,19.60
2023-05-21T22:22:36.785Z,17.08
2023-05-21T22:25:07.523Z,17.55
2023-05-21T22:27:38.635Z,17.95
2023-05-21T22:30:10.520Z,16.02
2023-05-21T22:32:40.533Z,18.05
2023-05-21T22:35:12.569Z,17.83
2023-05-21T22:37:42.333Z,15.82
2023-05-21T22:40:13.019Z,17.77
2023-05-21T22:42:46.252Z,20.70
2023-05-21T22:45:16.930Z,17.70
2023-05-21T22:47:46.553Z,16.70
2023-05-21T22:50:16.740Z,18.20
2023-05-21T22:52:46.413Z,20.20
2023-05-21T22:55:16.768Z,19.13
2023-05-21T22:57:56.832Z,16.88
2023-05-21T23:00:27.552Z,17.08
2023-05-21T23:02:57.082Z,16.30
2023-05-21T23:05:26.767Z,15.73
2023-05-21T23:07:56.329Z,22.85
2023-05-21T23:10:26.225Z,16.20
2023-05-21T23:12:57.347Z,15.75
2023-05-21T23:15:29.507Z,17.80
2023-05-21T23:18:00.553Z,17.37
2023-05-21T23:20:30.144Z,17.13
2023-05-21T23:22:59.719Z,16.63
2023-05-21T23:25:29.456Z,18.77
2023-05-21T23:28:00.330Z,18.60
2023-05-21T23:30:29.851Z,18.33
2023-05-21T23:32:59.516Z,16.05
2023-05-21T23:35:29.178Z,16.00
2023-05-21T23:37:58.684Z,16.80
2023-05-21T23:40:28.254Z,19.38
2023-05-21T23:42:59.204Z,17.48
2023-05-21T23:45:28.772Z,18.15
2023-05-21T23:47:58.438Z,18.83
2023-05-21T23:50:28.036Z,17.50
2023-05-21T23:52:57.870Z,17.88
2023-05-21T23:55:27.582Z,18.65
2023-05-21T23:57:57.108Z,18.05
